Time;durP1;ratioP1;P1;durP2;ratioP2;P2;SDS_P1;SDS_P2;PMS_P1;PMS_P2;Temp;Humidity;BMP_temperature;BMP_pressure;BME280_temperature;BME280_humidity;BME280_pressure;Samples;Min_cycle;Max_cycle;Signal;HPM_P1;HPM_P2
2023/08/20 00:01:03;;;;;;;10.20;6.27;;;20.10;99.90;;;;;;5073515;28;20674;-78
2023/08/20 00:03:32;;;;;;;8.77;6.80;;;20.10;99.90;;;;;;5092181;28;20676;-77
2023/08/20 00:06:03;;;;;;;9.47;6.23;;;20.00;99.90;;;;;;5092645;28;20241;-78
2023/08/20 00:08:32;;;;;;;8.87;6.17;;;20.00;99.90;;;;;;5092581;28;20215;-77
2023/08/20 00:11:00;;;;;;;10.37;6.63;;;19.90;99.90;;;;;;5075892;28;20246;-77
2023/08/20 00:13:28;;;;;;;7.03;6.23;;;19.90;99.90;;;;;;5072481;28;20261;-77
2023/08/20 00:15:56;;;;;;;6.73;5.87;;;19.80;99.90;;;;;;5072129;28;20670;-76
2023/08/20 00:18:25;;;;;;;7.57;5.67;;;19.80;99.90;;;;;;5072039;28;20211;-77
2023/08/20 00:20:54;;;;;;;6.87;5.93;;;19.80;99.90;;;;;;5072334;28;20234;-77
2023/08/20 00:23:25;;;;;;;7.67;5.53;;;19.80;99.90;;;;;;5072212;28;20269;-76
2023/08/20 00:25:53;;;;;;;7.13;5.53;;;19.70;99.90;;;;;;5071665;28;20227;-76
2023/08/20 00:28:22;;;;;;;9.57;6.47;;;19.70;99.90;;;;;;5072185;28;20217;-75
2023/08/20 00:30:50;;;;;;;8.80;6.00;;;19.70;99.90;;;;;;5071768;28;20570;-77
2023/08/20 00:33:18;;;;;;;8.77;6.03;;;19.70;99.90;;;;;;5072627;28;20235;-76
2023/08/20 00:35:46;;;;;;;8.20;6.47;;;19.70;99.90;;;;;;5072016;28;20276;-77
2023/08/20 00:38:15;;;;;;;9.70;6.10;;;19.60;99.90;;;;;;5092259;28;20211;-77
2023/08/20 00:40:44;;;;;;;9.37;6.47;;;19.50;99.90;;;;;;5092304;28;20210;-77
2023/08/20 00:43:12;;;;;;;9.07;6.27;;;19.50;99.90;;;;;;5092296;28;20284;-76
2023/08/20 00:45:41;;;;;;;8.10;6.17;;;19.40;99.90;;;;;;5075372;28;20238;-77
2023/08/20 00:48:11;;;;;;;8.43;6.80;;;19.40;99.90;;;;;;5076006;28;20215;-78
2023/08/20 00:50:40;;;;;;;7.97;6.70;;;19.30;99.90;;;;;;5076136;28;20231;-77
2023/08/20 00:53:11;;;;;;;7.37;6.03;;;19.30;99.90;;;;;;5076215;28;20211;-76
2023/08/20 00:55:39;;;;;;;8.93;6.40;;;19.30;99.90;;;;;;5075366;28;20665;-76
2023/08/20 00:58:09;;;;;;;7.57;6.27;;;19.30;99.90;;;;;;5075618;28;20662;-74
2023/08/20 01:00:37;;;;;;;9.30;6.07;;;19.20;99.90;;;;;;5075382;28;20246;-74
2023/08/20 01:03:06;;;;;;;8.47;6.50;;;19.20;99.90;;;;;;5075520;28;20212;-75
2023/08/20 01:05:40;;;;;;;10.23;6.63;;;19.10;99.90;;;;;;5075358;28;20238;-75
2023/08/20 01:08:21;;;;;;;8.23;6.33;;;19.10;99.90;;;;;;5075697;28;20195;-76
2023/08/20 01:10:57;;;;;;;9.33;6.27;;;19.10;99.90;;;;;;5075835;28;20242;-76
2023/08/20 01:13:26;;;;;;;9.67;6.17;;;19.10;99.90;;;;;;5076414;28;20620;-75
2023/08/20 01:15:55;;;;;;;7.47;6.33;;;19.00;99.90;;;;;;5076574;28;20207;-76
2023/08/20 01:18:25;;;;;;;9.00;6.57;;;19.00;99.90;;;;;;5075906;28;20672;-76
2023/08/20 01:20:59;;;;;;;8.17;5.97;;;19.00;99.90;;;;;;5076184;28;20265;-75
2023/08/20 01:24:00;;;;;;;9.97;7.10;;;19.00;99.90;;;;;;5075634;28;20207;-75
2023/08/20 01:26:44;;;;;;;8.73;6.90;;;19.00;99.90;;;;;;5072797;28;20588;-77
2023/08/20 01:29:14;;;;;;;9.80;6.37;;;19.00;99.90;;;;;;5077027;28;20269;-76
2023/08/20 01:31:44;;;;;;;8.00;6.60;;;19.00;99.90;;;;;;5076171;28;20215;-76
2023/08/20 01:34:13;;;;;;;9.60;6.27;;;18.90;99.90;;;;;;5076754;28;20188;-77
2023/08/20 01:36:41;;;;;;;8.33;6.60;;;18.90;99.90;;;;;;5096411;28;20653;-76
2023/08/20 01:39:09;;;;;;;9.70;7.13;;;18.90;99.90;;;;;;5095743;28;20207;-75
2023/08/20 01:41:40;;;;;;;7.90;6.77;;;18.90;99.90;;;;;;5095829;28;20211;-75
2023/08/20 01:44:08;;;;;;;10.73;7.47;;;18.90;99.90;;;;;;5095092;28;20207;-74
2023/08/20 01:46:38;;;;;;;8.20;6.80;;;18.90;99.90;;;;;;5095128;28;20272;-75
2023/08/20 01:49:06;;;;;;;7.40;6.70;;;18.90;99.90;;;;;;5085478;28;20212;-76
2023/08/20 01:51:36;;;;;;;9.63;7.03;;;18.90;99.90;;;;;;5074824;28;20207;-76
2023/08/20 01:54:05;;;;;;;8.73;7.00;;;18.80;99.90;;;;;;5074648;28;20207;-77
2023/08/20 01:56:33;;;;;;;9.13;6.80;;;18.80;99.90;;;;;;5074203;28;20219;-76
2023/08/20 01:59:01;;;;;;;9.67;6.90;;;18.70;99.90;;;;;;5074693;28;20265;-76
2023/08/20 02:01:29;;;;;;;9.70;6.83;;;18.70;99.90;;;;;;5074526;28;20265;-76
2023/08/20 02:03:59;;;;;;;10.77;7.03;;;18.70;99.90;;;;;;5074429;28;20207;-76
2023/08/20 02:06:27;;;;;;;8.67;7.00;;;18.70;99.90;;;;;;5074949;28;20689;-76
2023/08/20 02:08:55;;;;;;;7.63;6.83;;;18.60;99.90;;;;;;5094253;28;20664;-76
2023/08/20 02:11:23;;;;;;;8.37;6.80;;;18.60;99.90;;;;;;5094747;28;20211;-76
2023/08/20 02:13:52;;;;;;;10.17;7.60;;;18.60;99.90;;;;;;5094078;28;20260;-78
2023/08/20 02:16:20;;;;;;;11.87;7.53;;;18.60;99.90;;;;;;5093629;28;20206;-75
2023/08/20 02:18:48;;;;;;;15.43;7.67;;;18.50;99.90;;;;;;5094391;28;20481;-75
2023/08/20 02:21:18;;;;;;;10.07;7.00;;;18.50;99.90;;;;;;5094583;28;20257;-74
2023/08/20 02:23:46;;;;;;;10.33;6.90;;;18.50;99.90;;;;;;5084604;28;20226;-76
2023/08/20 02:26:14;;;;;;;8.47;6.93;;;18.50;99.90;;;;;;5074095;28;20265;-75
2023/08/20 02:28:43;;;;;;;7.77;6.83;;;18.40;99.90;;;;;;5074156;28;20285;-76
2023/08/20 02:31:11;;;;;;;8.97;6.80;;;18.40;99.90;;;;;;5074874;28;20310;-76
2023/08/20 02:33:39;;;;;;;10.43;7.40;;;18.40;99.90;;;;;;5094062;28;20206;-75
2023/08/20 02:36:07;;;;;;;7.90;6.63;;;18.40;99.90;;;;;;5094078;28;20574;-75
2023/08/20 02:38:37;;;;;;;11.10;6.87;;;18.30;99.90;;;;;;5094122;28;20255;-76
2023/08/20 02:41:05;;;;;;;8.80;7.60;;;18.30;99.90;;;;;;5074464;28;20825;-76
2023/08/20 02:43:33;;;;;;;10.10;7.93;;;18.30;99.90;;;;;;5073432;28;20261;-76
2023/08/20 02:46:01;;;;;;;8.60;6.57;;;18.20;99.90;;;;;;5073963;28;20211;-76
2023/08/20 02:48:30;;;;;;;7.67;6.87;;;18.20;99.90;;;;;;5073131;28;20227;-75
2023/08/20 02:50:58;;;;;;;8.23;6.90;;;18.20;99.90;;;;;;5074182;28;20222;-76
2023/08/20 02:53:26;;;;;;;10.23;7.17;;;18.20;99.90;;;;;;5073576;28;20292;-75
2023/08/20 02:55:57;;;;;;;8.13;7.27;;;18.20;99.90;;;;;;5073495;28;20207;-76
2023/08/20 02:58:25;;;;;;;7.73;6.90;;;18.10;99.90;;;;;;5073538;28;20199;-77
2023/08/20 03:00:53;;;;;;;9.73;7.07;;;18.20;99.90;;;;;;5073545;28;20753;-76
2023/08/20 03:03:21;;;;;;;8.27;6.60;;;18.10;99.90;;;;;;5072752;28;20212;-75
2023/08/20 03:05:49;;;;;;;10.83;7.27;;;18.10;99.90;;;;;;5072589;28;20259;-76
2023/08/20 03:08:18;;;;;;;10.10;7.47;;;18.00;99.90;;;;;;5072702;28;20296;-77
2023/08/20 03:10:46;;;;;;;8.33;6.80;;;18.00;99.90;;;;;;5072947;28;20661;-76
2023/08/20 03:13:15;;;;;;;9.10;7.07;;;18.00;99.90;;;;;;5073119;28;20635;-75
2023/08/20 03:15:43;;;;;;;8.40;6.80;;;18.00;99.90;;;;;;5088610;28;20206;-76
2023/08/20 03:18:11;;;;;;;8.60;6.77;;;18.00;99.90;;;;;;5093197;28;20215;-75
2023/08/20 03:20:39;;;;;;;8.03;6.90;;;17.90;99.90;;;;;;5093563;28;20213;-76
2023/08/20 03:23:08;;;;;;;8.23;7.33;;;17.90;99.90;;;;;;5078514;28;20214;-74
2023/08/20 03:25:36;;;;;;;8.93;7.23;;;17.90;99.90;;;;;;5073324;28;20594;-75
2023/08/20 03:28:04;;;;;;;9.17;7.00;;;17.90;99.90;;;;;;5073203;28;20231;-75
2023/08/20 03:30:34;;;;;;;8.67;6.97;;;17.80;99.90;;;;;;5080013;28;20252;-75
2023/08/20 03:33:03;;;;;;;8.90;6.87;;;17.90;99.90;;;;;;5092620;28;20292;-76
2023/08/20 03:35:31;;;;;;;9.77;7.43;;;17.90;99.90;;;;;;5093038;28;20217;-77
2023/08/20 03:37:59;;;;;;;12.37;7.50;;;17.90;99.90;;;;;;5092978;28;20203;-77
2023/08/20 03:40:29;;;;;;;9.93;7.40;;;17.80;99.90;;;;;;5075416;28;20214;-76
2023/08/20 03:42:57;;;;;;;7.77;6.93;;;17.90;99.90;;;;;;5072350;28;20658;-76
2023/08/20 03:45:25;;;;;;;7.50;6.80;;;17.90;99.90;;;;;;5072416;28;20217;-76
2023/08/20 03:47:54;;;;;;;8.80;7.30;;;17.90;99.90;;;;;;5072588;28;20224;-76
2023/08/20 03:50:22;;;;;;;9.57;6.87;;;17.90;99.90;;;;;;5073226;28;20588;-76
2023/08/20 03:52:51;;;;;;;9.93;7.83;;;17.90;99.90;;;;;;5072824;28;20281;-75
2023/08/20 03:55:19;;;;;;;7.33;6.30;;;17.90;99.90;;;;;;5074257;28;20265;-74
2023/08/20 03:57:47;;;;;;;11.27;7.17;;;18.00;99.90;;;;;;5073354;28;20207;-77
2023/08/20 04:00:16;;;;;;;10.00;7.23;;;18.00;99.90;;;;;;5072825;28;20219;-75
2023/08/20 04:02:44;;;;;;;11.17;7.47;;;18.00;99.90;;;;;;5076823;28;20234;-74
2023/08/20 04:05:13;;;;;;;7.43;6.43;;;18.10;99.90;;;;;;5072344;28;20212;-76
2023/08/20 04:07:42;;;;;;;8.97;7.33;;;18.10;99.90;;;;;;5072668;28;20223;-75
2023/08/20 04:10:10;;;;;;;10.43;6.97;;;18.10;99.90;;;;;;5072338;28;20214;-75
2023/08/20 04:12:38;;;;;;;9.10;7.67;;;18.20;99.90;;;;;;5072326;28;20207;-75
2023/08/20 04:15:07;;;;;;;8.90;6.83;;;18.20;99.90;;;;;;5072229;28;20207;-75
2023/08/20 04:17:35;;;;;;;8.97;7.00;;;18.20;99.90;;;;;;5088255;28;20210;-76
2023/08/20 04:20:07;;;;;;;10.73;7.23;;;18.30;99.90;;;;;;5073682;28;20246;-74
2023/08/20 04:22:37;;;;;;;9.53;7.23;;;18.30;99.90;;;;;;5072373;28;20215;-75
2023/08/20 04:25:06;;;;;;;9.80;6.80;;;18.30;99.90;;;;;;5071984;28;20207;-75
2023/08/20 04:27:34;;;;;;;7.33;6.37;;;18.30;99.90;;;;;;5072243;28;20258;-74
2023/08/20 04:30:03;;;;;;;8.90;6.63;;;18.40;99.90;;;;;;5072687;28;20207;-75
2023/08/20 04:32:31;;;;;;;8.20;6.10;;;18.40;99.90;;;;;;5071596;28;20222;-76
2023/08/20 04:34:59;;;;;;;10.63;6.97;;;18.40;99.90;;;;;;5071528;28;20661;-76
2023/08/20 04:37:27;;;;;;;8.17;6.90;;;18.40;99.90;;;;;;5072277;28;20219;-77
2023/08/20 04:39:57;;;;;;;8.30;6.30;;;18.50;99.90;;;;;;5072771;28;20303;-75
2023/08/20 04:42:25;;;;;;;11.37;7.33;;;18.50;99.90;;;;;;5072026;28;20211;-74
2023/08/20 04:44:53;;;;;;;8.73;6.70;;;18.60;99.90;;;;;;5071939;28;20261;-76
2023/08/20 04:47:21;;;;;;;10.97;7.17;;;18.60;99.90;;;;;;5071934;28;20208;-76
2023/08/20 04:49:49;;;;;;;9.53;7.00;;;18.60;99.90;;;;;;5071771;28;20231;-74
2023/08/20 04:52:19;;;;;;;8.20;7.00;;;18.70;99.90;;;;;;5072027;28;20212;-77
2023/08/20 04:54:47;;;;;;;8.07;6.50;;;18.80;99.90;;;;;;5071350;28;20215;-75
2023/08/20 04:57:16;;;;;;;8.07;6.37;;;18.80;99.90;;;;;;5071976;28;20219;-77
2023/08/20 04:59:45;;;;;;;8.33;6.40;;;18.80;99.90;;;;;;5071375;28;20673;-76
2023/08/20 05:02:13;;;;;;;9.43;6.30;;;18.90;99.90;;;;;;5072067;28;20246;-75
2023/08/20 05:04:41;;;;;;;7.83;5.67;;;18.90;99.90;;;;;;5071445;28;20261;-76
2023/08/20 05:07:10;;;;;;;8.63;6.13;;;18.90;99.90;;;;;;5071591;28;20269;-76
2023/08/20 05:09:38;;;;;;;11.47;5.90;;;18.90;99.90;;;;;;5071508;28;20219;-76
2023/08/20 05:12:07;;;;;;;11.13;6.20;;;18.90;99.90;;;;;;5086001;28;20215;-76
2023/08/20 05:14:36;;;;;;;12.63;6.20;;;18.90;99.90;;;;;;5091572;28;20574;-75
2023/08/20 05:17:04;;;;;;;9.97;6.13;;;18.90;99.90;;;;;;5072157;28;20572;-75
2023/08/20 05:19:32;;;;;;;8.13;5.80;;;18.80;99.90;;;;;;5071431;28;20265;-76
2023/08/20 05:22:01;;;;;;;12.37;6.40;;;18.80;99.90;;;;;;5071591;28;20264;-77
2023/08/20 05:24:29;;;;;;;9.70;5.60;;;18.80;99.90;;;;;;5071071;28;20616;-76
2023/08/20 05:27:08;;;;;;;7.07;5.50;;;18.80;99.90;;;;;;5071470;28;20212;-75
2023/08/20 05:29:38;;;;;;;7.80;6.00;;;18.80;99.90;;;;;;5079618;28;20222;-76
2023/08/20 05:32:07;;;;;;;7.63;5.67;;;18.90;99.90;;;;;;5095111;28;20214;-77
2023/08/20 05:34:35;;;;;;;6.50;5.80;;;18.90;99.90;;;;;;5095262;28;20210;-76
2023/08/20 05:37:04;;;;;;;9.97;5.90;;;18.90;99.90;;;;;;5095432;28;20268;-75
2023/08/20 05:39:37;;;;;;;11.70;6.47;;;18.90;99.90;;;;;;5095037;28;20213;-76
2023/08/20 05:42:06;;;;;;;6.83;5.40;;;19.00;99.90;;;;;;5095331;28;20618;-76
2023/08/20 05:44:34;;;;;;;10.07;5.60;;;19.00;99.90;;;;;;5094930;28;20260;-76
2023/08/20 05:47:05;;;;;;;6.60;5.20;;;19.10;99.90;;;;;;5095141;28;20213;-75
2023/08/20 05:49:33;;;;;;;9.50;5.17;;;19.20;99.90;;;;;;5095051;28;20256;-77
2023/08/20 05:52:02;;;;;;;9.57;5.00;;;19.30;99.90;;;;;;5075563;28;20208;-74
2023/08/20 05:54:30;;;;;;;8.57;4.87;;;19.30;99.90;;;;;;5075927;28;20208;-76
2023/08/20 05:56:58;;;;;;;9.23;5.00;;;19.40;99.90;;;;;;5075974;28;20269;-75
2023/08/20 05:59:27;;;;;;;8.83;5.17;;;19.50;99.90;;;;;;5075092;28;20257;-77
2023/08/20 06:01:55;;;;;;;10.73;5.00;;;19.60;99.90;;;;;;5074274;28;20203;-75
2023/08/20 06:04:25;;;;;;;9.70;5.00;;;19.70;99.90;;;;;;5074107;28;20211;-76
2023/08/20 06:06:53;;;;;;;10.23;5.00;;;19.80;99.90;;;;;;5074537;28;20223;-76
2023/08/20 06:09:21;;;;;;;8.70;4.83;;;20.00;99.90;;;;;;5074428;28;20220;-76
2023/08/20 06:11:49;;;;;;;9.30;4.90;;;20.10;99.90;;;;;;5074140;28;20203;-77
2023/08/20 06:14:17;;;;;;;7.67;4.83;;;20.20;99.90;;;;;;5073811;28;20207;-76
2023/08/20 06:16:45;;;;;;;10.53;4.47;;;20.50;99.90;;;;;;5074225;28;20281;-76
2023/08/20 06:19:14;;;;;;;8.00;4.60;;;20.70;99.90;;;;;;5074046;28;20207;-76
2023/08/20 06:21:43;;;;;;;9.27;4.67;;;21.00;99.90;;;;;;5077126;28;20543;-75
2023/08/20 06:24:11;;;;;;;8.33;4.63;;;21.30;99.90;;;;;;5075969;28;20210;-77
2023/08/20 06:26:39;;;;;;;6.33;4.10;;;21.50;99.90;;;;;;5074762;28;20219;-76
2023/08/20 06:29:08;;;;;;;8.47;4.17;;;21.70;99.90;;;;;;5084074;28;20231;-76
2023/08/20 06:31:36;;;;;;;7.73;4.13;;;21.90;99.90;;;;;;5073818;28;20219;-75
2023/08/20 06:34:04;;;;;;;8.53;4.37;;;22.00;99.90;;;;;;5073592;28;20300;-76
2023/08/20 06:36:32;;;;;;;6.87;4.17;;;22.20;99.90;;;;;;5074462;28;20303;-75
2023/08/20 06:39:02;;;;;;;11.37;4.50;;;22.50;99.90;;;;;;5074046;28;20200;-75
2023/08/20 06:41:30;;;;;;;6.93;4.40;;;22.80;99.90;;;;;;5073962;28;20219;-74
2023/08/20 06:43:58;;;;;;;6.73;4.30;;;23.10;99.90;;;;;;5073478;28;20281;-75
2023/08/20 06:46:26;;;;;;;10.70;4.30;;;23.00;99.90;;;;;;5073897;28;20215;-74
2023/08/20 06:48:54;;;;;;;6.03;4.27;;;23.30;99.90;;;;;;5073578;28;20215;-75
2023/08/20 06:51:23;;;;;;;8.67;4.10;;;23.50;99.90;;;;;;5073508;28;20204;-77
2023/08/20 06:53:51;;;;;;;7.57;3.73;;;23.60;99.90;;;;;;5073430;28;20207;-78
2023/08/20 06:56:21;;;;;;;9.30;4.30;;;24.00;99.90;;;;;;5073466;28;20349;-74
2023/08/20 06:58:49;;;;;;;7.03;3.87;;;24.50;99.90;;;;;;5073174;28;20215;-77
2023/08/20 07:01:17;;;;;;;7.57;4.00;;;24.90;99.90;;;;;;5073636;28;20294;-76
2023/08/20 07:03:46;;;;;;;7.40;4.30;;;25.20;99.90;;;;;;5073383;28;20634;-74
2023/08/20 07:06:16;;;;;;;6.57;3.83;;;25.50;99.90;;;;;;5072988;28;20227;-76
2023/08/20 07:08:44;;;;;;;6.83;3.90;;;25.30;99.90;;;;;;5091755;28;20210;-76
2023/08/20 07:11:12;;;;;;;9.70;4.10;;;25.10;99.90;;;;;;5093756;28;20299;-76
2023/08/20 07:13:41;;;;;;;8.13;3.87;;;25.30;99.90;;;;;;5093358;28;20194;-78
2023/08/20 07:16:10;;;;;;;6.03;3.80;;;25.40;99.90;;;;;;5076830;28;20207;-78
2023/08/20 07:18:38;;;;;;;6.90;4.17;;;25.60;99.90;;;;;;5073380;28;20247;-76
2023/08/20 07:21:07;;;;;;;9.03;4.07;;;25.80;99.90;;;;;;5072744;28;20645;-78
2023/08/20 07:23:35;;;;;;;6.43;3.80;;;26.20;99.90;;;;;;5073098;28;20261;-77
2023/08/20 07:26:08;;;;;;;10.17;4.30;;;26.90;99.90;;;;;;5074634;28;20211;-76
2023/08/20 07:31:23;;;;;;;7.32;3.35;;;28.50;97.20;;;;;;5092696;28;20363;-79
2023/08/20 07:33:52;;;;;;;9.18;3.72;;;29.80;94.80;;;;;;5089409;28;20596;-77
2023/08/20 07:36:22;;;;;;;5.78;3.30;;;30.50;92.50;;;;;;5072932;28;20211;-75
2023/08/20 07:38:51;;;;;;;7.68;3.53;;;31.70;86.10;;;;;;5072274;28;20212;-77
2023/08/20 07:41:21;;;;;;;6.70;3.50;;;32.40;79.90;;;;;;5072598;28;20203;-76
2023/08/20 07:43:49;;;;;;;6.32;3.60;;;32.80;78.80;;;;;;5072063;28;20242;-78
2023/08/20 07:46:18;;;;;;;6.60;3.70;;;33.50;74.30;;;;;;5072452;28;20220;-75
2023/08/20 07:48:47;;;;;;;9.38;3.58;;;33.30;69.00;;;;;;5072361;28;20280;-75
2023/08/20 07:51:15;;;;;;;9.63;3.70;;;33.90;67.20;;;;;;5072053;28;20227;-76
2023/08/20 07:53:43;;;;;;;8.60;3.55;;;34.50;67.80;;;;;;5071508;28;20211;-76
2023/08/20 07:56:11;;;;;;;7.40;3.65;;;35.10;60.10;;;;;;5071904;28;20207;-75
2023/08/20 07:58:40;;;;;;;8.63;3.28;;;35.10;56.30;;;;;;5071944;28;20211;-75
2023/08/20 08:01:08;;;;;;;8.85;3.92;;;35.00;56.80;;;;;;5072271;28;20576;-74
2023/08/20 08:03:36;;;;;;;9.57;3.72;;;35.70;56.30;;;;;;5084973;28;20285;-75
2023/08/20 08:06:06;;;;;;;7.50;3.42;;;36.00;52.90;;;;;;5092041;28;20227;-73
2023/08/20 08:08:34;;;;;;;8.38;3.40;;;36.50;51.60;;;;;;5092242;28;20214;-74
2023/08/20 08:11:03;;;;;;;9.88;3.78;;;37.00;51.60;;;;;;5082414;28;20355;-75
2023/08/20 08:13:31;;;;;;;10.00;3.80;;;36.40;47.90;;;;;;5072376;28;20658;-73
2023/08/20 08:15:59;;;;;;;8.55;3.55;;;36.70;50.60;;;;;;5086924;28;20256;-73
2023/08/20 08:18:27;;;;;;;6.90;3.47;;;37.70;44.40;;;;;;5072011;28;20213;-75
2023/08/20 08:20:55;;;;;;;8.20;4.05;;;37.80;46.20;;;;;;5071933;28;20207;-74
2023/08/20 08:23:25;;;;;;;7.50;3.38;;;37.20;42.80;;;;;;5071418;28;20211;-75
2023/08/20 08:25:53;;;;;;;7.32;3.30;;;36.50;41.60;;;;;;5083402;28;20256;-75
2023/08/20 08:28:21;;;;;;;5.68;3.28;;;36.70;41.70;;;;;;5092105;28;20214;-75
2023/08/20 08:30:49;;;;;;;7.85;3.60;;;37.00;40.20;;;;;;5078916;28;20223;-73
2023/08/20 08:33:17;;;;;;;7.40;3.40;;;37.30;41.90;;;;;;5087488;28;20211;-75
2023/08/20 08:35:46;;;;;;;8.52;3.60;;;37.50;40.80;;;;;;5091772;28;20209;-75
2023/08/20 08:38:14;;;;;;;10.20;3.92;;;37.40;39.90;;;;;;5092062;28;20256;-74
2023/08/20 08:40:44;;;;;;;8.32;3.47;;;36.80;42.80;;;;;;5085868;28;20235;-75
2023/08/20 08:43:16;;;;;;;7.90;3.72;;;36.70;43.10;;;;;;5071354;28;20215;-75
2023/08/20 08:45:48;;;;;;;7.55;3.65;;;37.40;41.10;;;;;;5071577;28;20215;-72
2023/08/20 08:48:18;;;;;;;10.85;3.95;;;37.30;42.10;;;;;;5071615;28;20204;-75
2023/08/20 08:50:47;;;;;;;6.13;3.58;;;37.40;40.00;;;;;;5070936;28;20246;-73
2023/08/20 08:53:16;;;;;;;4.70;3.50;;;36.90;41.30;;;;;;5070245;28;20341;-73
2023/08/20 08:55:45;;;;;;;10.00;3.50;;;36.80;43.00;;;;;;5071420;28;20207;-74
2023/08/20 08:58:13;;;;;;;7.25;3.80;;;37.30;40.80;;;;;;5073285;28;20320;-75
2023/08/20 09:00:41;;;;;;;5.93;3.50;;;37.30;41.30;;;;;;5071462;28;20207;-74
2023/08/20 09:03:10;;;;;;;9.27;3.50;;;37.40;41.40;;;;;;5071509;28;20211;-73
2023/08/20 09:05:48;;;;;;;8.15;3.75;;;38.30;40.50;;;;;;5072927;28;20785;-75
2023/08/20 09:08:22;;;;;;;8.35;3.50;;;38.30;40.30;;;;;;5083722;28;20222;-76
2023/08/20 09:10:57;;;;;;;8.35;3.65;;;38.00;41.50;;;;;;5094987;28;20230;-73
2023/08/20 09:13:26;;;;;;;6.30;3.88;;;38.50;40.60;;;;;;5095251;28;20210;-75
2023/08/20 09:15:55;;;;;;;6.38;3.63;;;38.70;36.70;;;;;;5090649;28;20265;-74
2023/08/20 09:18:23;;;;;;;7.45;3.35;;;37.70;38.50;;;;;;5074539;28;20591;-74
2023/08/20 09:20:51;;;;;;;7.15;3.42;;;38.10;37.90;;;;;;5074629;28;20215;-74
2023/08/20 09:23:19;;;;;;;7.20;3.50;;;38.00;40.90;;;;;;5077262;28;20211;-74
2023/08/20 09:25:48;;;;;;;6.07;3.40;;;38.50;39.40;;;;;;5089328;28;20227;-76
2023/08/20 09:28:17;;;;;;;6.68;3.47;;;39.30;36.30;;;;;;5079542;28;20202;-76
2023/08/20 09:31:01;;;;;;;5.57;3.30;;;39.00;36.60;;;;;;5091840;28;20231;-76
2023/08/20 09:33:32;;;;;;;8.70;3.80;;;38.20;37.00;;;;;;5090864;28;20656;-75
2023/08/20 09:36:00;;;;;;;6.57;3.50;;;38.40;37.70;;;;;;5092885;28;20241;-74
2023/08/20 09:38:28;;;;;;;5.97;3.70;;;38.20;38.30;;;;;;5094610;28;20223;-75
2023/08/20 09:40:58;;;;;;;5.95;3.67;;;38.10;38.10;;;;;;5094360;28;20211;-72
2023/08/20 09:43:31;;;;;;;6.15;3.60;;;38.60;38.30;;;;;;5073334;28;20215;-74
2023/08/20 09:46:03;;;;;;;5.22;3.40;;;38.30;39.50;;;;;;5075381;28;20226;-74
2023/08/20 09:48:35;;;;;;;5.60;3.30;;;38.90;38.30;;;;;;5090977;28;20203;-74
2023/08/20 09:51:06;;;;;;;7.25;3.75;;;39.10;37.70;;;;;;5089799;28;20219;-76
2023/08/20 09:53:36;;;;;;;6.82;3.65;;;39.00;39.10;;;;;;5088268;28;20198;-73
2023/08/20 09:56:10;;;;;;;5.68;3.55;;;39.40;37.60;;;;;;5094376;28;20207;-74
2023/08/20 09:58:41;;;;;;;6.65;3.75;;;38.90;38.00;;;;;;5093963;28;20247;-74
2023/08/20 10:01:09;;;;;;;6.07;3.97;;;38.30;37.90;;;;;;5091233;28;20203;-74
2023/08/20 10:03:38;;;;;;;5.78;3.60;;;39.10;40.40;;;;;;5090812;28;20219;-74
2023/08/20 10:06:07;;;;;;;5.80;3.50;;;39.50;37.70;;;;;;5088636;28;20723;-75
2023/08/20 10:08:39;;;;;;;5.70;3.63;;;40.20;38.00;;;;;;5090245;28;20526;-75
2023/08/20 10:11:07;;;;;;;6.47;3.63;;;40.00;37.10;;;;;;5092429;28;20226;-74
2023/08/20 10:13:36;;;;;;;7.72;3.90;;;39.50;34.20;;;;;;5091920;28;20738;-74
2023/08/20 10:16:06;;;;;;;5.88;3.55;;;39.10;36.60;;;;;;5091896;28;20215;-74
2023/08/20 10:18:36;;;;;;;6.43;3.55;;;38.90;39.80;;;;;;5085650;28;20204;-76
2023/08/20 10:21:07;;;;;;;5.07;3.55;;;38.50;37.90;;;;;;5072938;28;20225;-75
2023/08/20 10:23:36;;;;;;;7.47;3.90;;;39.00;39.10;;;;;;5088405;28;20620;-75
2023/08/20 10:26:09;;;;;;;7.18;3.90;;;39.10;36.80;;;;;;5092896;28;20519;-74
2023/08/20 10:28:37;;;;;;;5.15;4.05;;;38.50;39.50;;;;;;5073173;28;20204;-76
2023/08/20 10:31:09;;;;;;;7.35;4.20;;;38.70;38.60;;;;;;5071907;28;20769;-74
2023/08/20 10:33:39;;;;;;;7.80;4.18;;;38.90;37.90;;;;;;5086714;28;20250;-77
2023/08/20 10:36:17;;;;;;;5.95;3.92;;;38.70;38.80;;;;;;5081692;28;20280;-76
2023/08/20 10:38:47;;;;;;;5.07;3.80;;;38.20;37.90;;;;;;5089371;28;20207;-77
2023/08/20 10:41:16;;;;;;;7.32;4.22;;;38.10;40.00;;;;;;5092014;28;20202;-74
2023/08/20 10:43:48;;;;;;;5.78;3.90;;;39.40;37.90;;;;;;5085986;28;20215;-74
2023/08/20 10:46:19;;;;;;;7.22;4.00;;;38.90;38.20;;;;;;5091933;28;20195;-75
2023/08/20 10:48:49;;;;;;;5.72;4.30;;;40.10;36.00;;;;;;5089084;28;20202;-77
2023/08/20 10:51:19;;;;;;;5.60;3.53;;;40.10;35.60;;;;;;5086787;28;20233;-78
2023/08/20 10:54:04;;;;;;;6.53;4.03;;;39.30;38.20;;;;;;5093604;28;20285;-76
2023/08/20 10:56:40;;;;;;;5.65;3.90;;;39.20;36.50;;;;;;5093205;28;20211;-77
2023/08/20 10:59:10;;;;;;;7.90;3.83;;;37.60;37.00;;;;;;5084897;28;20203;-75
2023/08/20 11:01:40;;;;;;;6.05;3.75;;;37.40;38.10;;;;;;5093150;28;20603;-75
2023/08/20 11:04:09;;;;;;;8.50;4.40;;;37.80;41.30;;;;;;5092415;28;20218;-75
2023/08/20 11:06:39;;;;;;;6.07;3.40;;;38.00;37.60;;;;;;5075124;28;20503;-77
2023/08/20 11:09:07;;;;;;;4.95;3.80;;;37.40;38.30;;;;;;5083472;28;20230;-75
2023/08/20 11:11:36;;;;;;;4.45;3.78;;;37.40;42.10;;;;;;5092370;28;20223;-76
2023/08/20 11:14:07;;;;;;;6.22;3.85;;;37.50;40.70;;;;;;5093104;28;20257;-78
2023/08/20 11:16:36;;;;;;;6.05;3.95;;;37.60;39.50;;;;;;5085398;28;20637;-77
2023/08/20 11:19:08;;;;;;;6.03;3.85;;;37.50;39.00;;;;;;5096337;28;20602;-78
2023/08/20 11:21:38;;;;;;;8.80;4.07;;;36.50;40.00;;;;;;5095482;28;20268;-77
2023/08/20 11:24:07;;;;;;;5.45;4.07;;;36.20;39.70;;;;;;5100200;28;20228;-78
2023/08/20 11:26:36;;;;;;;4.90;3.78;;;35.70;38.50;;;;;;5093511;28;20339;-78
2023/08/20 11:29:07;;;;;;;7.30;4.07;;;35.40;43.10;;;;;;5092806;28;20210;-75
2023/08/20 11:31:36;;;;;;;5.53;4.05;;;35.60;45.70;;;;;;5098295;28;20571;-76
2023/08/20 11:34:07;;;;;;;8.80;4.30;;;35.30;41.30;;;;;;5105360;28;20224;-76
2023/08/20 11:36:36;;;;;;;5.60;3.78;;;35.00;41.70;;;;;;5099101;28;20663;-78
2023/08/20 11:39:04;;;;;;;6.00;3.85;;;34.80;43.60;;;;;;5095665;28;20207;-76
2023/08/20 11:41:36;;;;;;;6.82;3.83;;;34.80;46.40;;;;;;5084188;28;20276;-75
2023/08/20 11:44:05;;;;;;;4.93;3.75;;;34.60;41.80;;;;;;5098923;28;20218;-76
2023/08/20 11:46:33;;;;;;;5.57;3.58;;;34.70;39.90;;;;;;5100470;28;20579;-76
2023/08/20 11:49:04;;;;;;;7.18;3.90;;;34.80;42.40;;;;;;5097520;28;20325;-76
2023/08/20 11:51:38;;;;;;;7.22;3.88;;;34.20;40.80;;;;;;5083551;28;20671;-75
2023/08/20 11:54:08;;;;;;;6.07;3.92;;;34.10;43.00;;;;;;5097092;28;20210;-76
2023/08/20 11:56:38;;;;;;;5.68;3.60;;;34.40;42.40;;;;;;5106021;28;20207;-76
2023/08/20 11:59:11;;;;;;;5.85;3.55;;;34.20;42.10;;;;;;5103903;28;20229;-75
2023/08/20 12:01:39;;;;;;;4.95;3.70;;;34.30;42.40;;;;;;5093961;28;20206;-77
2023/08/20 12:04:09;;;;;;;6.15;3.80;;;34.50;41.60;;;;;;5092762;28;20707;-75
2023/08/20 12:06:39;;;;;;;5.78;3.75;;;34.20;44.00;;;;;;5106109;28;20231;-77
2023/08/20 12:09:21;;;;;;;5.45;3.53;;;34.50;38.80;;;;;;5101110;28;20267;-77
2023/08/20 12:11:50;;;;;;;6.50;4.00;;;34.30;43.60;;;;;;5092649;28;20204;-76
2023/08/20 12:14:18;;;;;;;7.30;3.85;;;34.30;43.30;;;;;;5105017;28;20289;-75
2023/08/20 12:16:47;;;;;;;4.70;4.03;;;34.50;45.10;;;;;;5090055;28;20234;-75
2023/08/20 12:19:15;;;;;;;7.57;3.58;;;34.30;43.40;;;;;;5099125;28;20202;-76
2023/08/20 12:21:48;;;;;;;5.25;3.80;;;33.70;40.60;;;;;;5103582;28;20222;-74
2023/08/20 12:24:18;;;;;;;8.38;3.70;;;33.70;41.70;;;;;;5098497;28;20565;-76
2023/08/20 12:26:47;;;;;;;5.40;3.95;;;33.90;45.30;;;;;;5090662;28;20207;-75
2023/08/20 12:29:15;;;;;;;9.52;4.30;;;34.10;43.60;;;;;;5106063;28;20210;-77
2023/08/20 12:31:43;;;;;;;4.55;3.78;;;34.20;44.80;;;;;;5106246;28;20222;-75
2023/08/20 12:34:11;;;;;;;6.88;3.85;;;34.20;44.60;;;;;;5100187;28;20207;-75
2023/08/20 12:36:39;;;;;;;6.63;3.80;;;34.00;41.30;;;;;;5073443;28;21970;-76
2023/08/20 12:39:09;;;;;;;6.22;3.80;;;34.20;43.50;;;;;;5092041;28;20202;-75
2023/08/20 12:41:37;;;;;;;7.18;3.67;;;34.30;40.10;;;;;;5099031;28;20206;-75
2023/08/20 12:44:06;;;;;;;7.45;4.00;;;33.90;40.90;;;;;;5098640;28;20202;-77
2023/08/20 12:46:34;;;;;;;5.53;3.92;;;34.10;42.40;;;;;;5085600;28;20213;-79
2023/08/20 12:49:03;;;;;;;7.43;4.18;;;33.90;43.90;;;;;;5087764;28;20653;-76
2023/08/20 12:51:31;;;;;;;5.53;3.90;;;34.20;45.20;;;;;;5098753;28;20210;-76
2023/08/20 12:53:59;;;;;;;4.28;3.58;;;34.10;42.10;;;;;;5087124;28;20231;-77
2023/08/20 12:56:29;;;;;;;4.78;3.70;;;34.10;42.70;;;;;;5093342;28;20293;-76
2023/08/20 12:58:57;;;;;;;5.70;4.05;;;34.00;45.50;;;;;;5085710;28;20288;-77